Time;durP1;ratioP1;P1;durP2;ratioP2;P2;SDS_P1;SDS_P2;PMS_P1;PMS_P2;Temp;Humidity;BMP_temperature;BMP_pressure;BME280_temperature;BME280_humidity;BME280_pressure;Samples;Min_cycle;Max_cycle;Signal;HPM_P1;HPM_P2
2022/04/12 00:01:14;;;;;;;9.47;7.73;;;9.10;99.90;;;;;;4990205;28;20298;-68
2022/04/12 00:03:39;;;;;;;10.20;6.67;;;9.10;99.90;;;;;;4989834;28;20192;-68
2022/04/12 00:06:05;;;;;;;13.23;7.93;;;9.10;99.90;;;;;;4991692;28;20195;-68
2022/04/12 00:08:30;;;;;;;8.83;6.77;;;9.00;99.90;;;;;;4993156;28;20179;-69
2022/04/12 00:10:56;;;;;;;7.77;6.90;;;9.00;99.90;;;;;;4989799;28;20172;-69
2022/04/12 00:13:22;;;;;;;7.80;7.00;;;8.90;99.90;;;;;;4990965;28;20219;-68
2022/04/12 00:15:48;;;;;;;11.07;7.33;;;8.90;99.90;;;;;;4993369;28;20565;-68
2022/04/12 00:20:59;;;;;;;8.07;5.60;;;8.80;99.90;;;;;;4986556;28;20496;-68
2022/04/12 00:23:25;;;;;;;7.40;6.40;;;8.80;99.90;;;;;;4991180;28;20466;-69
2022/04/12 00:25:53;;;;;;;11.03;6.93;;;8.70;99.90;;;;;;4986790;28;20194;-69
2022/04/12 00:28:19;;;;;;;10.43;7.53;;;8.60;99.90;;;;;;4989962;28;20266;-68
2022/04/12 00:30:45;;;;;;;8.33;5.60;;;8.60;99.90;;;;;;4993145;28;20434;-68
2022/04/12 00:33:11;;;;;;;7.70;6.90;;;8.60;99.90;;;;;;4988494;28;20553;-68
2022/04/12 00:35:36;;;;;;;9.23;8.33;;;8.60;99.90;;;;;;4990913;28;20542;-68
2022/04/12 00:38:13;;;;;;;7.93;7.10;;;8.60;99.90;;;;;;4984889;28;20191;-68
2022/04/12 00:40:40;;;;;;;10.03;7.93;;;8.70;99.90;;;;;;4990664;28;20187;-68
2022/04/12 00:43:06;;;;;;;10.00;8.00;;;8.70;99.90;;;;;;4991816;28;20497;-68
2022/04/12 00:45:31;;;;;;;10.70;9.60;;;8.70;99.90;;;;;;4986886;28;20712;-68
2022/04/12 00:47:57;;;;;;;12.63;9.50;;;8.70;99.90;;;;;;4986668;28;20221;-68
2022/04/12 00:50:22;;;;;;;8.53;7.73;;;8.70;99.90;;;;;;4990721;28;20564;-68
2022/04/12 00:52:51;;;;;;;10.83;7.10;;;8.70;99.90;;;;;;4989017;28;20517;-69
2022/04/12 00:55:17;;;;;;;11.30;8.33;;;8.70;99.90;;;;;;4986545;28;20187;-67
2022/04/12 00:57:42;;;;;;;10.93;8.60;;;8.60;99.90;;;;;;4990651;28;20442;-68
2022/04/12 01:00:10;;;;;;;9.67;8.60;;;8.60;99.90;;;;;;4988830;28;20187;-68
2022/04/12 01:02:36;;;;;;;11.63;7.93;;;8.60;99.90;;;;;;4988611;28;20295;-68
2022/04/12 01:05:03;;;;;;;10.80;8.37;;;8.50;99.90;;;;;;4991331;28;20434;-68
2022/04/12 01:07:30;;;;;;;9.70;8.27;;;8.40;99.90;;;;;;4987230;28;20434;-68
2022/04/12 01:09:56;;;;;;;10.00;8.97;;;8.40;99.90;;;;;;4989040;28;20442;-68
2022/04/12 01:12:22;;;;;;;11.20;8.50;;;8.40;99.90;;;;;;4989799;28;20984;-68
2022/04/12 01:14:48;;;;;;;10.07;8.70;;;8.30;99.90;;;;;;4987730;28;20431;-68
2022/04/12 01:17:17;;;;;;;11.73;9.17;;;8.30;99.90;;;;;;4991231;28;20194;-69
2022/04/12 01:19:43;;;;;;;9.37;8.40;;;8.30;99.90;;;;;;4988919;28;20438;-68
2022/04/12 01:22:13;;;;;;;10.57;9.30;;;8.40;99.90;;;;;;4988423;28;20884;-68
2022/04/12 01:24:38;;;;;;;15.10;8.67;;;8.40;99.90;;;;;;4990101;28;20167;-68
2022/04/12 01:27:04;;;;;;;8.90;8.00;;;8.40;99.90;;;;;;4988406;28;20485;-69
2022/04/12 01:29:35;;;;;;;11.43;8.57;;;8.40;99.90;;;;;;4989727;28;20183;-68
2022/04/12 01:32:08;;;;;;;12.57;10.17;;;8.30;99.90;;;;;;4987070;28;20203;-68
2022/04/12 01:34:36;;;;;;;12.23;10.60;;;8.30;99.90;;;;;;4991354;28;20984;-68
2022/04/12 01:37:03;;;;;;;12.80;10.73;;;8.30;99.90;;;;;;4991124;28;20444;-68
2022/04/12 01:39:29;;;;;;;12.97;10.60;;;8.30;99.90;;;;;;4985762;28;20434;-68
2022/04/12 01:41:55;;;;;;;11.13;8.80;;;8.30;99.90;;;;;;4989440;28;20473;-67
2022/04/12 01:44:21;;;;;;;9.37;8.37;;;8.30;99.90;;;;;;4987478;28;20521;-68
2022/04/12 01:46:46;;;;;;;12.60;9.30;;;8.30;99.90;;;;;;4988586;28;20242;-68
2022/04/12 01:49:12;;;;;;;17.00;8.73;;;8.20;99.90;;;;;;4990628;28;20179;-68
2022/04/12 01:51:37;;;;;;;16.53;9.40;;;8.20;99.90;;;;;;4989982;28;20576;-69
2022/04/12 01:54:03;;;;;;;12.07;9.03;;;8.20;99.90;;;;;;4987109;28;20441;-68
2022/04/12 01:56:31;;;;;;;11.17;9.80;;;8.10;99.90;;;;;;4989611;28;20649;-69
2022/04/12 01:58:57;;;;;;;11.00;8.87;;;8.10;99.90;;;;;;4991024;28;20245;-69
2022/04/12 02:01:22;;;;;;;10.83;9.70;;;8.10;99.90;;;;;;4989088;28;20462;-67
2022/04/12 02:03:48;;;;;;;10.67;8.00;;;8.10;99.90;;;;;;4988887;28;20445;-68
2022/04/12 02:06:13;;;;;;;9.23;8.30;;;8.10;99.90;;;;;;4988901;28;20172;-66
2022/04/12 02:08:40;;;;;;;9.80;8.23;;;8.10;99.90;;;;;;4988449;28;20180;-67
2022/04/12 02:11:06;;;;;;;8.63;7.70;;;8.00;99.90;;;;;;4987884;28;20172;-68
2022/04/12 02:13:32;;;;;;;10.03;8.23;;;8.00;99.90;;;;;;4989775;28;20862;-67
2022/04/12 02:15:58;;;;;;;10.23;9.10;;;8.00;99.90;;;;;;4987093;28;20442;-69
2022/04/12 02:18:23;;;;;;;10.70;8.63;;;8.00;99.90;;;;;;4988950;28;20172;-69
2022/04/12 02:20:49;;;;;;;9.63;8.30;;;7.90;99.90;;;;;;4989603;28;20278;-68
2022/04/12 02:23:14;;;;;;;9.37;8.20;;;7.90;99.90;;;;;;4989432;28;20265;-67
2022/04/12 02:25:40;;;;;;;14.13;9.03;;;7.90;99.90;;;;;;4989282;28;20199;-69
2022/04/12 02:28:06;;;;;;;10.03;8.93;;;7.90;99.90;;;;;;4985651;28;20184;-67
2022/04/12 02:30:31;;;;;;;9.83;8.57;;;7.90;99.90;;;;;;4985928;28;20255;-67
2022/04/12 02:32:58;;;;;;;16.43;11.27;;;7.80;99.90;;;;;;4989374;28;20192;-67
2022/04/12 02:35:25;;;;;;;11.50;9.60;;;7.80;99.90;;;;;;4986842;28;20179;-67
2022/04/12 02:37:51;;;;;;;8.70;7.70;;;7.80;99.90;;;;;;4986448;28;20438;-67
2022/04/12 02:40:17;;;;;;;9.90;8.80;;;7.70;99.90;;;;;;4987779;28;20434;-67
2022/04/12 02:42:43;;;;;;;11.43;7.83;;;7.70;99.90;;;;;;4985701;28;20477;-68
2022/04/12 02:45:09;;;;;;;10.40;7.87;;;7.70;99.90;;;;;;4991317;28;20430;-67
2022/04/12 02:47:34;;;;;;;9.50;8.30;;;7.70;99.90;;;;;;4985586;28;20262;-67
2022/04/12 02:50:00;;;;;;;11.67;8.30;;;7.70;99.90;;;;;;4987700;28;20372;-67
2022/04/12 02:52:25;;;;;;;9.27;8.37;;;7.60;99.90;;;;;;4987665;28;20254;-69
2022/04/12 02:54:51;;;;;;;10.17;8.83;;;7.60;99.90;;;;;;4990191;28;20237;-67
2022/04/12 02:57:16;;;;;;;10.73;8.47;;;7.60;99.90;;;;;;4990057;28;20736;-67
2022/04/12 02:59:42;;;;;;;9.33;8.30;;;7.60;99.90;;;;;;4988740;28;20199;-69
2022/04/12 03:02:07;;;;;;;8.70;7.80;;;7.60;99.90;;;;;;4985471;28;20199;-68
2022/04/12 03:04:33;;;;;;;9.53;7.73;;;7.60;99.90;;;;;;4985128;28;20177;-69
2022/04/12 03:06:59;;;;;;;12.13;9.97;;;7.60;99.90;;;;;;4989865;28;20191;-67
2022/04/12 03:09:24;;;;;;;10.50;9.20;;;7.50;99.90;;;;;;4986018;28;20171;-67
2022/04/12 03:11:50;;;;;;;9.70;8.70;;;7.50;99.90;;;;;;4987377;28;20570;-69
2022/04/12 03:14:15;;;;;;;12.03;8.37;;;7.40;99.90;;;;;;4989827;28;20192;-69
2022/04/12 03:16:42;;;;;;;10.43;8.33;;;7.40;99.90;;;;;;4986856;28;20192;-67
2022/04/12 03:19:07;;;;;;;12.13;8.97;;;7.40;99.90;;;;;;4989589;28;20179;-67
2022/04/12 03:21:34;;;;;;;9.63;8.57;;;7.40;99.90;;;;;;4993418;28;20841;-67
2022/04/12 03:24:00;;;;;;;12.63;8.00;;;7.40;99.90;;;;;;4988597;28;20172;-67
2022/04/12 03:26:25;;;;;;;9.77;8.80;;;7.40;99.90;;;;;;4989445;28;20490;-67
2022/04/12 03:28:51;;;;;;;10.50;8.40;;;7.40;99.90;;;;;;4991121;28;20186;-67
2022/04/12 03:31:16;;;;;;;15.10;8.80;;;7.40;99.90;;;;;;4990925;28;20226;-67
2022/04/12 03:33:42;;;;;;;14.10;9.80;;;7.30;99.90;;;;;;4992591;28;20234;-68
2022/04/12 03:36:07;;;;;;;14.60;8.10;;;7.30;99.90;;;;;;4989392;28;20734;-68
2022/04/12 03:38:35;;;;;;;14.60;9.60;;;7.30;99.90;;;;;;4990820;28;20182;-67
2022/04/12 03:41:03;;;;;;;9.80;8.80;;;7.20;99.90;;;;;;4992917;28;20175;-67
2022/04/12 03:43:28;;;;;;;9.50;7.40;;;7.30;99.90;;;;;;4995595;28;20466;-67
2022/04/12 03:45:54;;;;;;;9.70;8.70;;;7.30;99.90;;;;;;4994806;28;20433;-67
2022/04/12 03:48:19;;;;;;;10.50;7.63;;;7.30;99.90;;;;;;4992913;28;20207;-68
2022/04/12 03:50:45;;;;;;;10.80;8.07;;;7.30;99.90;;;;;;4992686;28;20175;-68
2022/04/12 03:53:10;;;;;;;9.20;8.20;;;7.20;99.90;;;;;;4990065;28;20222;-67
2022/04/12 03:55:39;;;;;;;8.43;7.03;;;7.20;99.90;;;;;;4990049;28;20314;-67
2022/04/12 03:58:06;;;;;;;7.80;7.03;;;7.20;99.90;;;;;;4993761;28;20176;-67
2022/04/12 04:00:32;;;;;;;11.20;7.83;;;7.20;99.90;;;;;;4990096;28;20439;-67
2022/04/12 04:02:58;;;;;;;9.63;8.53;;;7.30;99.90;;;;;;4990126;28;20553;-67
2022/04/12 04:05:24;;;;;;;8.40;7.13;;;7.20;99.90;;;;;;4990650;28;20574;-67
2022/04/12 04:07:50;;;;;;;8.90;7.60;;;7.20;99.90;;;;;;4993470;28;20175;-67
2022/04/12 04:10:16;;;;;;;11.53;8.00;;;7.20;99.90;;;;;;4991084;28;20968;-68
2022/04/12 04:12:42;;;;;;;9.70;8.60;;;7.20;99.90;;;;;;4991642;28;20234;-67
2022/04/12 04:15:12;;;;;;;10.33;8.50;;;7.10;99.90;;;;;;4990580;28;20188;-68
2022/04/12 04:17:40;;;;;;;10.87;8.60;;;7.10;99.90;;;;;;4992685;28;20438;-67
2022/04/12 04:20:06;;;;;;;10.87;8.40;;;7.00;99.90;;;;;;4993378;28;20438;-67
2022/04/12 04:22:32;;;;;;;12.50;8.30;;;7.10;99.90;;;;;;4990382;28;20477;-67
2022/04/12 04:24:57;;;;;;;10.80;9.70;;;7.00;99.90;;;;;;4992754;28;20435;-67
2022/04/12 04:27:28;;;;;;;14.50;8.80;;;7.00;99.90;;;;;;4993541;28;20234;-67
2022/04/12 04:29:57;;;;;;;9.37;8.47;;;7.00;99.90;;;;;;4989811;28;20709;-67
2022/04/12 04:32:23;;;;;;;10.60;8.50;;;7.00;99.90;;;;;;4991003;28;20610;-67
2022/04/12 04:34:48;;;;;;;9.00;8.20;;;7.00;99.90;;;;;;4992945;28;20948;-67
2022/04/12 04:37:14;;;;;;;9.57;8.23;;;7.00;99.90;;;;;;4989662;28;20466;-68
2022/04/12 04:39:39;;;;;;;13.00;8.87;;;7.00;99.90;;;;;;4991060;28;20186;-67
2022/04/12 04:42:05;;;;;;;9.50;8.60;;;7.00;99.90;;;;;;4990862;28;20204;-67
2022/04/12 04:44:31;;;;;;;8.87;7.80;;;6.90;99.90;;;;;;4993070;28;20171;-68
2022/04/12 04:46:57;;;;;;;9.70;7.67;;;7.00;99.90;;;;;;4991154;28;20651;-68
2022/04/12 04:49:22;;;;;;;8.77;7.90;;;7.00;99.90;;;;;;4990342;28;20439;-66
2022/04/12 04:51:48;;;;;;;9.50;8.50;;;7.00;99.90;;;;;;4988469;28;20247;-67
2022/04/12 04:54:14;;;;;;;10.00;8.07;;;7.00;99.90;;;;;;4984502;28;20677;-67
2022/04/12 04:56:39;;;;;;;11.20;8.00;;;7.00;99.90;;;;;;4991390;28;20179;-67
2022/04/12 04:59:05;;;;;;;10.00;9.00;;;7.00;99.90;;;;;;4989162;28;20453;-67
2022/04/12 05:01:31;;;;;;;17.50;8.33;;;7.00;99.90;;;;;;4989813;28;21575;-67
2022/04/12 05:03:56;;;;;;;15.30;8.60;;;7.00;99.90;;;;;;4992072;28;20175;-67
2022/04/12 05:06:22;;;;;;;12.70;9.20;;;7.00;99.90;;;;;;4989503;28;20680;-67
2022/04/12 05:08:47;;;;;;;13.43;9.80;;;7.00;99.90;;;;;;4984452;28;20172;-67
2022/04/12 05:11:13;;;;;;;17.00;11.33;;;7.00;99.90;;;;;;4991081;28;20776;-67
2022/04/12 05:13:38;;;;;;;13.47;9.20;;;7.10;99.90;;;;;;4987834;28;20571;-67
2022/04/12 05:16:04;;;;;;;13.90;9.10;;;7.10;99.90;;;;;;4989969;28;20286;-68
2022/04/12 05:18:30;;;;;;;10.73;9.63;;;7.10;99.90;;;;;;4991154;28;20184;-67
2022/04/12 05:20:56;;;;;;;10.17;8.37;;;7.20;99.90;;;;;;4986874;28;20254;-67
2022/04/12 05:23:22;;;;;;;11.53;9.63;;;7.30;99.90;;;;;;4987089;28;20477;-67
2022/04/12 05:25:48;;;;;;;10.00;8.00;;;7.40;99.90;;;;;;4986127;28;20238;-67
2022/04/12 05:28:13;;;;;;;8.40;7.50;;;7.50;99.90;;;;;;4990892;28;20669;-66
2022/04/12 05:30:39;;;;;;;10.83;8.30;;;7.50;99.90;;;;;;4987450;28;20552;-67
2022/04/12 05:33:05;;;;;;;9.60;8.60;;;7.60;99.90;;;;;;4991333;28;20282;-67
2022/04/12 05:35:30;;;;;;;12.20;9.23;;;7.80;99.90;;;;;;4991768;28;20206;-68
2022/04/12 05:37:56;;;;;;;8.83;8.03;;;8.00;99.90;;;;;;4987995;28;20190;-67
2022/04/12 05:40:22;;;;;;;9.83;8.93;;;8.20;99.90;;;;;;4986991;28;20583;-68
2022/04/12 05:42:49;;;;;;;11.80;8.93;;;8.30;99.90;;;;;;4991204;28;20203;-68
2022/04/12 05:45:15;;;;;;;12.80;8.60;;;8.50;99.90;;;;;;4990930;28;20450;-68
2022/04/12 05:47:51;;;;;;;9.20;8.30;;;8.60;99.90;;;;;;4985233;28;20442;-67
2022/04/12 05:50:19;;;;;;;15.93;8.87;;;8.70;99.90;;;;;;4986881;28;20866;-67
2022/04/12 05:52:44;;;;;;;10.63;8.27;;;8.80;99.90;;;;;;4985955;28;20474;-67
2022/04/12 05:55:15;;;;;;;10.97;9.43;;;8.80;99.90;;;;;;4985290;28;20451;-67
2022/04/12 05:57:52;;;;;;;10.37;9.17;;;8.90;99.90;;;;;;4986163;28;20658;-67
2022/04/12 06:00:21;;;;;;;11.30;8.87;;;9.00;99.90;;;;;;4988118;28;20438;-67
2022/04/12 06:02:48;;;;;;;11.80;9.23;;;9.00;99.90;;;;;;4990742;28;20467;-67
2022/04/12 06:05:14;;;;;;;11.40;9.80;;;9.00;99.90;;;;;;4985733;28;20439;-68
2022/04/12 06:07:41;;;;;;;12.53;9.87;;;9.10;99.90;;;;;;4987411;28;20450;-68
2022/04/12 06:10:08;;;;;;;17.50;9.30;;;9.10;99.90;;;;;;4987161;28;20453;-67
2022/04/12 06:12:34;;;;;;;14.90;8.57;;;9.20;99.90;;;;;;4989645;28;20462;-67
2022/04/12 06:14:59;;;;;;;11.50;8.27;;;9.40;99.90;;;;;;4991256;28;20770;-67
2022/04/12 06:17:32;;;;;;;13.77;9.53;;;9.70;99.90;;;;;;4989288;28;20643;-67
2022/04/12 06:20:07;;;;;;;10.83;8.50;;;10.00;99.90;;;;;;4986534;28;20183;-68
2022/04/12 06:22:33;;;;;;;10.53;9.20;;;10.10;99.90;;;;;;4986545;28;20866;-68
2022/04/12 06:24:59;;;;;;;14.50;9.10;;;10.20;99.90;;;;;;4965197;28;21443;-69
2022/04/12 06:27:42;;;;;;;13.97;9.57;;;10.30;99.90;;;;;;4969177;28;20525;-68
2022/04/12 06:30:12;;;;;;;9.63;8.73;;;10.50;99.90;;;;;;4987156;28;20229;-68
2022/04/12 06:32:38;;;;;;;9.13;8.23;;;10.60;99.90;;;;;;4990533;28;20536;-67
2022/04/12 06:35:05;;;;;;;11.67;8.87;;;10.50;99.90;;;;;;4980581;28;20790;-67
2022/04/12 06:37:32;;;;;;;12.00;8.97;;;10.60;99.90;;;;;;4987614;28;21073;-67
2022/04/12 06:39:58;;;;;;;9.80;8.90;;;10.50;99.90;;;;;;4982788;28;20435;-68
2022/04/12 06:42:24;;;;;;;11.20;8.97;;;10.50;99.90;;;;;;4978023;28;20529;-67
2022/04/12 06:44:50;;;;;;;14.40;9.83;;;10.60;99.90;;;;;;4986950;28;20446;-69
2022/04/12 06:47:16;;;;;;;12.30;10.03;;;10.80;99.90;;;;;;4991327;28;20267;-66
2022/04/12 06:49:46;;;;;;;13.50;10.27;;;10.90;99.90;;;;;;4974923;28;20187;-66
2022/04/12 06:52:13;;;;;;;9.43;8.43;;;11.00;99.90;;;;;;4985723;28;20907;-67
2022/04/12 06:54:38;;;;;;;11.30;8.47;;;11.10;99.90;;;;;;4992173;28;20446;-67
2022/04/12 06:57:04;;;;;;;9.50;8.53;;;11.20;99.90;;;;;;4987371;28;20499;-67
2022/04/12 06:59:30;;;;;;;19.13;9.30;;;11.30;99.90;;;;;;4988424;28;20562;-67
2022/04/12 07:01:56;;;;;;;9.10;8.20;;;11.70;99.90;;;;;;4988868;28;21035;-67
2022/04/12 07:04:22;;;;;;;11.53;9.27;;;11.90;99.90;;;;;;4990771;28;20461;-67
2022/04/12 07:06:48;;;;;;;9.60;8.70;;;12.00;99.90;;;;;;4988049;28;20533;-67
2022/04/12 07:09:20;;;;;;;15.67;8.60;;;12.10;99.90;;;;;;4987655;28;20184;-67
2022/04/12 07:11:46;;;;;;;11.53;10.33;;;12.30;99.90;;;;;;4988771;28;20213;-67
2022/04/12 07:14:12;;;;;;;12.83;8.27;;;12.70;99.90;;;;;;4990307;28;20901;-67
2022/04/12 07:16:37;;;;;;;15.17;8.80;;;12.70;99.90;;;;;;4984489;28;20530;-67
2022/04/12 07:19:03;;;;;;;12.57;7.90;;;12.70;99.90;;;;;;4983137;28;20195;-67
2022/04/12 07:21:29;;;;;;;13.37;9.10;;;12.80;99.90;;;;;;4986367;28;20203;-66
2022/04/12 07:23:55;;;;;;;12.70;8.10;;;12.80;99.90;;;;;;4982669;28;20523;-67
2022/04/12 07:26:21;;;;;;;10.73;8.30;;;12.80;99.90;;;;;;4985416;28;21408;-67
2022/04/12 07:28:46;;;;;;;9.20;8.40;;;12.70;99.90;;;;;;4989029;28;20466;-67
2022/04/12 07:31:12;;;;;;;12.00;8.43;;;12.60;99.90;;;;;;4992969;28;20206;-67
2022/04/12 07:33:37;;;;;;;18.90;8.30;;;12.60;99.90;;;;;;4990664;28;20639;-67
2022/04/12 07:36:04;;;;;;;9.87;8.10;;;12.50;99.90;;;;;;4985283;28;20652;-68
2022/04/12 07:38:29;;;;;;;10.83;9.13;;;12.90;99.90;;;;;;4986799;28;20266;-69
2022/04/12 07:40:55;;;;;;;9.77;8.40;;;13.20;99.90;;;;;;4989072;28;20442;-67
2022/04/12 07:43:20;;;;;;;9.73;7.70;;;13.30;99.90;;;;;;4984851;28;20237;-67
2022/04/12 07:45:46;;;;;;;13.40;9.17;;;13.30;99.90;;;;;;4990755;28;20223;-69
2022/04/12 07:48:13;;;;;;;11.30;8.40;;;13.30;99.90;;;;;;4988868;28;20187;-67
2022/04/12 07:50:39;;;;;;;10.10;9.10;;;13.60;99.90;;;;;;4986666;28;20175;-69
2022/04/12 07:53:05;;;;;;;10.17;8.57;;;13.90;99.90;;;;;;4981862;28;20513;-69
2022/04/12 07:55:30;;;;;;;11.30;10.10;;;13.90;99.90;;;;;;4989399;28;20434;-69
2022/04/12 07:57:56;;;;;;;11.87;9.77;;;13.90;99.90;;;;;;4988528;28;20187;-70
2022/04/12 08:00:21;;;;;;;14.03;11.20;;;14.30;99.90;;;;;;4986166;28;20195;-69
2022/04/12 08:02:47;;;;;;;12.40;8.60;;;14.50;99.90;;;;;;4987596;28;20218;-69
2022/04/12 08:05:13;;;;;;;11.60;9.17;;;14.60;99.90;;;;;;4985995;28;20188;-70
2022/04/12 08:07:39;;;;;;;9.33;8.53;;;14.70;99.90;;;;;;4990171;28;20226;-69
2022/04/12 08:10:06;;;;;;;11.33;8.30;;;14.80;99.90;;;;;;4989323;28;20176;-70
2022/04/12 08:12:31;;;;;;;9.57;8.37;;;15.30;99.90;;;;;;4990985;28;20937;-67
2022/04/12 08:14:57;;;;;;;10.57;7.47;;;15.80;99.30;;;;;;4988146;28;20971;-68
2022/04/12 08:17:22;;;;;;;9.80;8.23;;;16.10;98.00;;;;;;4982783;28;21321;-69
2022/04/12 08:19:48;;;;;;;9.53;7.50;;;16.10;97.40;;;;;;4986147;28;20187;-70
2022/04/12 08:22:13;;;;;;;8.23;7.43;;;16.40;96.50;;;;;;4986276;28;20230;-67
2022/04/12 08:24:39;;;;;;;7.57;6.87;;;16.70;96.20;;;;;;4987621;28;20600;-69
2022/04/12 08:27:04;;;;;;;8.97;8.17;;;17.00;95.90;;;;;;4980711;28;20190;-69
2022/04/12 08:29:30;;;;;;;10.03;7.47;;;17.20;96.00;;;;;;4985913;28;20179;-69
2022/04/12 08:31:55;;;;;;;11.93;8.30;;;16.80;94.80;;;;;;4988089;28;20214;-68
2022/04/12 08:34:21;;;;;;;8.97;7.17;;;17.00;95.60;;;;;;4983874;28;20187;-67
2022/04/12 08:36:46;;;;;;;8.27;7.47;;;17.20;95.50;;;;;;4987481;28;20278;-67
2022/04/12 08:39:13;;;;;;;6.67;6.00;;;17.50;94.60;;;;;;4983091;28;20206;-69
2022/04/12 08:41:40;;;;;;;8.77;6.33;;;17.70;92.20;;;;;;4987721;28;20199;-69
2022/04/12 08:44:07;;;;;;;7.20;6.20;;;17.90;90.90;;;;;;4987687;28;20944;-69
2022/04/12 08:46:35;;;;;;;6.13;5.60;;;17.80;89.20;;;;;;4985804;28;20438;-70
2022/04/12 08:49:01;;;;;;;6.57;4.70;;;17.60;90.30;;;;;;4982116;28;20430;-70
2022/04/12 08:51:30;;;;;;;5.23;4.67;;;17.70;87.80;;;;;;4987018;28;20531;-70
2022/04/12 08:53:57;;;;;;;5.33;4.77;;;17.90;87.80;;;;;;4986334;28;20179;-70
2022/04/12 08:56:23;;;;;;;9.73;4.83;;;18.60;85.90;;;;;;4979433;28;20526;-70
2022/04/12 08:58:49;;;;;;;6.93;4.97;;;19.10;84.10;;;;;;4987266;28;20438;-69
2022/04/12 09:01:15;;;;;;;5.40;4.60;;;19.40;84.40;;;;;;4979558;28;20470;-70
2022/04/12 09:03:41;;;;;;;8.10;4.90;;;19.70;79.50;;;;;;4983173;28;20207;-69
2022/04/12 09:06:06;;;;;;;5.20;4.70;;;19.70;79.30;;;;;;4986597;28;20465;-69
2022/04/12 09:08:33;;;;;;;6.23;5.20;;;20.20;77.00;;;;;;4986591;28;20642;-69
2022/04/12 09:11:04;;;;;;;7.33;5.20;;;19.90;76.60;;;;;;4987867;28;20191;-70
2022/04/12 09:13:30;;;;;;;5.60;5.00;;;19.50;76.90;;;;;;4984665;28;20446;-70
2022/04/12 09:15:55;;;;;;;5.00;4.60;;;19.50;75.40;;;;;;4986144;28;20451;-69
2022/04/12 09:18:48;;;;;;;5.60;4.23;;;19.50;75.70;;;;;;4982453;28;20202;-70
2022/04/12 09:21:15;;;;;;;4.67;4.23;;;19.80;75.80;;;;;;4987443;28;20203;-69
2022/04/12 09:23:49;;;;;;;5.90;5.30;;;20.60;73.80;;;;;;4984793;28;20466;-70
2022/04/12 09:26:20;;;;;;;5.63;5.13;;;21.40;71.00;;;;;;4985333;28;21427;-67
2022/04/12 09:28:46;;;;;;;5.20;4.47;;;22.30;67.90;;;;;;4985155;28;20441;-67
2022/04/12 09:31:13;;;;;;;6.63;5.50;;;22.60;62.70;;;;;;4986288;28;20521;-70
2022/04/12 09:33:40;;;;;;;5.70;5.03;;;23.80;61.50;;;;;;4986861;28;20652;-68
2022/04/12 09:36:06;;;;;;;7.53;5.30;;;24.00;59.70;;;;;;4989348;28;20449;-68
2022/04/12 09:38:33;;;;;;;5.77;5.27;;;24.40;57.30;;;;;;4985000;28;20566;-70
2022/04/12 09:41:16;;;;;;;5.20;4.80;;;24.20;56.00;;;;;;4979570;28;20439;-67
2022/04/12 09:43:56;;;;;;;5.73;5.30;;;24.30;55.60;;;;;;4978778;28;20466;-69
2022/04/12 09:46:24;;;;;;;5.33;4.70;;;24.60;54.90;;;;;;4986410;28;20441;-68
2022/04/12 09:48:51;;;;;;;7.20;4.90;;;25.00;54.50;;;;;;4986604;28;20533;-68
2022/04/12 09:51:19;;;;;;;6.87;5.40;;;25.40;52.40;;;;;;4985838;28;20473;-68
2022/04/12 09:53:47;;;;;;;8.80;5.07;;;26.10;51.40;;;;;;4986484;28;20442;-68
2022/04/12 09:56:14;;;;;;;8.27;4.27;;;27.10;49.40;;;;;;4987572;28;20434;-68
2022/04/12 09:58:40;;;;;;;4.73;4.33;;;27.50;47.40;;;;;;4986579;28;20438;-68
2022/04/12 10:01:08;;;;;;;4.20;3.80;;;27.60;47.10;;;;;;4984770;28;20434;-68
2022/04/12 10:03:34;;;;;;;3.97;3.67;;;28.30;44.60;;;;;;4977355;28;20475;-68
2022/04/12 10:06:01;;;;;;;4.60;4.20;;;27.10;44.40;;;;;;4989937;28;20442;-68
2022/04/12 10:08:30;;;;;;;4.37;3.93;;;27.90;43.60;;;;;;4985723;28;20457;-68
2022/04/12 10:10:56;;;;;;;4.90;3.80;;;28.60;43.20;;;;;;4982506;28;20442;-68
2022/04/12 10:13:23;;;;;;;4.07;3.73;;;28.80;42.30;;;;;;4983344;28;20826;-68
2022/04/12 10:15:49;;;;;;;5.10;3.80;;;28.30;41.30;;;;;;4986941;28;20203;-68
2022/04/12 10:18:18;;;;;;;4.20;3.90;;;25.90;41.90;;;;;;4986916;28;20459;-68
2022/04/12 10:20:44;;;;;;;5.93;3.37;;;24.70;44.60;;;;;;4982168;28;20454;-68
2022/04/12 10:23:10;;;;;;;4.33;4.00;;;24.70;44.20;;;;;;4985293;28;20536;-67
2022/04/12 10:25:35;;;;;;;6.70;3.67;;;24.90;44.20;;;;;;4985431;28;20451;-68
2022/04/12 10:28:04;;;;;;;4.27;3.90;;;26.00;44.00;;;;;;4985983;28;20673;-68
2022/04/12 10:30:31;;;;;;;3.17;2.93;;;27.10;42.50;;;;;;4991665;28;20275;-68
2022/04/12 10:33:07;;;;;;;4.37;3.57;;;27.40;41.20;;;;;;4987884;28;20814;-68
2022/04/12 10:35:45;;;;;;;4.23;2.90;;;27.50;41.30;;;;;;4988822;28;20544;-68
2022/04/12 10:38:13;;;;;;;3.33;3.13;;;26.30;41.20;;;;;;4987787;28;20453;-67
2022/04/12 10:40:46;;;;;;;5.73;4.00;;;27.60;41.60;;;;;;4990304;28;20462;-68
2022/04/12 10:43:15;;;;;;;5.80;4.70;;;27.80;41.60;;;;;;4989311;28;20839;-67
2022/04/12 10:45:48;;;;;;;4.40;4.00;;;27.40;42.60;;;;;;4988935;28;20446;-68
2022/04/12 10:48:22;;;;;;;5.47;3.47;;;27.90;42.00;;;;;;4993111;28;20537;-67
2022/04/12 10:50:50;;;;;;;5.50;4.37;;;27.40;41.10;;;;;;4986834;28;20825;-68
2022/04/12 10:53:35;;;;;;;5.30;4.70;;;28.30;41.60;;;;;;4991370;28;20926;-68
2022/04/12 10:56:09;;;;;;;4.60;4.10;;;29.00;40.60;;;;;;4990742;28;20524;-68
2022/04/12 10:58:36;;;;;;;4.30;4.00;;;29.80;42.00;;;;;;4989622;28;20521;-68
2022/04/12 11:01:02;;;;;;;4.73;4.33;;;30.90;44.70;;;;;;4990270;28;20504;-69
2022/04/12 11:03:40;;;;;;;5.40;4.90;;;31.60;44.70;;;;;;4998273;28;20753;-69
2022/04/12 11:06:27;;;;;;;4.80;4.40;;;32.20;45.80;;;;;;5001624;28;20446;-67
2022/04/12 11:08:55;;;;;;;4.43;4.00;;;31.30;46.10;;;;;;4989932;28;20456;-67
2022/04/12 11:11:27;;;;;;;5.30;4.87;;;29.70;48.30;;;;;;4991470;28;20485;-68
2022/04/12 11:13:53;;;;;;;4.50;4.17;;;30.50;49.10;;;;;;4991362;28;20524;-68
2022/04/12 11:16:21;;;;;;;4.40;4.00;;;30.10;48.70;;;;;;4989967;28;20442;-67
2022/04/12 11:18:57;;;;;;;3.77;3.47;;;30.40;48.80;;;;;;4981582;28;20945;-67
2022/04/12 11:21:46;;;;;;;6.20;4.40;;;29.50;48.90;;;;;;4988783;28;20462;-67
2022/04/12 11:24:15;;;;;;;9.47;8.57;;;27.90;49.60;;;;;;4989582;28;20474;-72
2022/04/12 11:26:47;;;;;;;6.13;4.90;;;26.80;51.50;;;;;;4988895;28;20849;-68
2022/04/12 11:29:18;;;;;;;4.00;3.70;;;26.80;52.90;;;;;;4989631;28;20430;-67
2022/04/12 11:31:48;;;;;;;4.83;3.40;;;27.30;51.40;;;;;;4985407;28;20454;-68
2022/04/12 11:34:14;;;;;;;4.10;3.70;;;27.30;51.70;;;;;;4989861;28;20522;-67
2022/04/12 11:36:50;;;;;;;4.53;3.90;;;26.50;51.80;;;;;;4991827;28;20423;-67
2022/04/12 11:39:21;;;;;;;3.53;3.23;;;26.60;51.80;;;;;;4984624;28;20469;-67
2022/04/12 11:41:47;;;;;;;4.03;3.63;;;26.80;52.60;;;;;;4984853;28;20501;-67
2022/04/12 11:44:13;;;;;;;3.20;3.00;;;26.90;52.50;;;;;;4988066;28;20889;-67
2022/04/12 11:46:39;;;;;;;3.53;3.23;;;26.10;52.90;;;;;;4981394;28;20522;-69
2022/04/12 11:49:09;;;;;;;5.10;3.20;;;26.00;54.00;;;;;;4986746;28;20286;-67
2022/04/12 11:51:52;;;;;;;4.23;3.83;;;26.40;52.80;;;;;;4987375;28;20466;-67
2022/04/12 11:54:24;;;;;;;5.83;3.50;;;26.20;53.40;;;;;;4988067;28;20493;-67
2022/04/12 11:57:09;;;;;;;3.70;3.37;;;26.00;53.30;;;;;;4989320;28;20438;-67
2022/04/12 11:59:46;;;;;;;4.40;3.03;;;26.40;53.30;;;;;;4982349;28;20434;-68
2022/04/12 12:02:12;;;;;;;3.27;2.97;;;26.20;54.10;;;;;;4981960;28;20655;-67
2022/04/12 12:04:54;;;;;;;3.77;3.47;;;26.60;53.70;;;;;;4983495;28;20446;-67
2022/04/12 12:07:20;;;;;;;3.20;2.90;;;26.10;54.60;;;;;;4988140;28;21284;-67
2022/04/12 12:09:56;;;;;;;3.93;2.47;;;26.10;54.40;;;;;;4980888;28;20442;-68
2022/04/12 12:12:31;;;;;;;3.13;2.83;;;26.50;54.80;;;;;;4984552;28;20524;-67
2022/04/12 12:14:57;;;;;;;4.63;3.53;;;27.00;53.40;;;;;;4983693;28;20508;-67
2022/04/12 12:17:25;;;;;;;3.40;3.07;;;26.90;53.30;;;;;;4986660;28;20438;-67
2022/04/12 12:19:50;;;;;;;4.03;3.63;;;26.30;54.00;;;;;;4983484;28;20245;-68
2022/04/12 12:22:17;;;;;;;3.67;3.10;;;26.20;54.20;;;;;;4986207;28;20474;-67
2022/04/12 12:24:56;;;;;;;5.20;2.83;;;26.80;53.90;;;;;;4985757;28;20230;-67
2022/04/12 12:27:37;;;;;;;2.73;2.53;;;27.30;53.50;;;;;;4985083;28;20500;-67
2022/04/12 12:30:09;;;;;;;2.87;2.43;;;27.30;53.00;;;;;;4986780;28;21033;-67
2022/04/12 12:32:38;;;;;;;3.30;2.50;;;25.80;53.90;;;;;;4987768;28;20885;-67
2022/04/12 12:35:08;;;;;;;4.00;3.00;;;25.40;55.40;;;;;;4987685;28;20485;-70
2022/04/12 12:37:35;;;;;;;2.70;2.50;;;26.20;55.60;;;;;;4984798;28;20819;-67
2022/04/12 12:40:02;;;;;;;3.50;2.77;;;25.70;55.10;;;;;;4986453;28;20538;-67
2022/04/12 12:42:37;;;;;;;5.87;2.60;;;25.10;56.30;;;;;;4987822;28;20581;-67
2022/04/12 12:45:14;;;;;;;20.63;3.90;;;25.40;57.00;;;;;;4986571;28;20983;-67
2022/04/12 12:47:41;;;;;;;2.83;2.43;;;25.70;55.80;;;;;;4985348;28;20438;-67
2022/04/12 12:50:10;;;;;;;3.00;2.70;;;25.50;56.20;;;;;;4984118;28;20446;-67
2022/04/12 12:52:35;;;;;;;3.20;2.63;;;25.80;56.90;;;;;;4984405;28;21040;-70